Time;durP1;ratioP1;P1;durP2;ratioP2;P2;SDS_P1;SDS_P2;PMS_P1;PMS_P2;Temp;Humidity;BMP_temperature;BMP_pressure;BME280_temperature;BME280_humidity;BME280_pressure;Samples;Min_cycle;Max_cycle;Signal;HPM_P1;HPM_P2
2022/10/16 00:00:24;;;;;;;;;3.33;3.00;;;;;18.57;69.33;100581.00;2120610;27;46393;-63
2022/10/16 00:01:27;;;;;;;;;2.67;2.67;;;;;18.56;69.74;100573.91;2121640;27;46198;-66
2022/10/16 00:02:27;;;;;;;;;2.00;2.00;;;;;18.57;69.46;100575.63;2113426;27;46781;-65
2022/10/16 00:03:28;;;;;;;;;2.67;2.00;;;;;18.58;69.60;100563.06;2097655;28;46629;-65
2022/10/16 00:04:28;;;;;;;;;3.00;1.67;;;;;18.58;69.44;100563.06;2103127;28;46536;-64
2022/10/16 00:05:29;;;;;;;;;4.00;2.00;;;;;18.58;69.09;100569.28;2121550;27;45554;-64
2022/10/16 00:06:30;;;;;;;;;4.00;3.00;;;;;18.58;69.53;100576.50;2122175;27;46121;-66
2022/10/16 00:07:30;;;;;;;;;2.75;2.75;;;;;18.57;69.50;100578.31;2121652;27;46927;-64
2022/10/16 00:08:31;;;;;;;;;2.00;2.00;;;;;18.57;69.34;100582.81;2116038;27;46454;-64
2022/10/16 00:09:31;;;;;;;;;4.00;3.67;;;;;18.56;69.43;100578.41;2115687;27;46988;-64
2022/10/16 00:10:31;;;;;;;;;2.00;2.00;;;;;18.55;69.65;100585.59;2113080;27;46636;-64
2022/10/16 00:11:36;;;;;;;;;2.33;2.33;;;;;18.56;69.63;100581.09;2118059;27;46332;-64
2022/10/16 00:12:37;;;;;;;;;0.75;0.75;;;;;18.56;69.16;100583.78;2121419;27;46306;-65
2022/10/16 00:13:39;;;;;;;;;2.00;1.33;;;;;18.56;69.31;100583.78;2119057;27;46533;-65
2022/10/16 00:14:41;;;;;;;;;2.00;2.00;;;;;18.56;69.66;100581.09;2119170;27;47376;-65
2022/10/16 00:15:43;;;;;;;;;1.25;1.25;;;;;18.53;69.43;100580.28;2120115;27;46296;-64
2022/10/16 00:16:44;;;;;;;;;2.25;2.25;;;;;18.52;69.36;100581.25;2120858;27;46548;-65
2022/10/16 00:17:44;;;;;;;;;0.67;0.67;;;;;18.52;69.38;100581.25;2112391;27;46515;-65
2022/10/16 00:18:44;;;;;;;;;5.33;5.33;;;;;18.52;69.92;100583.94;2112172;27;46764;-64
2022/10/16 00:19:45;;;;;;;;;3.00;2.00;;;;;18.49;69.71;100578.72;2115070;27;46199;-65
2022/10/16 00:20:45;;;;;;;;;1.00;1.00;;;;;18.52;69.81;100583.06;2113456;27;45480;-65
2022/10/16 00:21:45;;;;;;;;;2.67;2.67;;;;;18.52;69.84;100586.63;2120179;27;46324;-66
2022/10/16 00:22:46;;;;;;;;;3.67;3.67;;;;;18.53;69.55;100596.41;2119567;27;46423;-66
2022/10/16 00:23:49;;;;;;;;;3.33;3.33;;;;;18.53;69.37;100600.91;2120765;27;46064;-66
2022/10/16 00:24:50;;;;;;;;;3.00;2.50;;;;;18.54;69.29;100608.88;2120695;27;46553;-65
2022/10/16 00:25:58;;;;;;;;;3.00;3.00;;;;;18.53;69.74;100609.84;2122078;27;45768;-65
2022/10/16 00:26:59;;;;;;;;;3.00;3.00;;;;;18.54;69.62;100606.19;2121310;27;45606;-66
2022/10/16 00:28:00;;;;;;;;;3.00;3.00;;;;;18.55;69.67;100609.78;2121402;27;46389;-65
2022/10/16 00:29:02;;;;;;;;;0.50;0.50;;;;;18.55;69.43;100596.34;2103510;28;46793;-65
2022/10/16 00:30:03;;;;;;;;;1.25;1.25;;;;;18.54;69.30;100595.44;2103155;27;46550;-66
2022/10/16 00:31:09;;;;;;;;;1.25;0.75;;;;;18.54;69.45;100592.75;2121378;27;46094;-65
2022/10/16 00:32:10;;;;;;;;;1.25;1.00;;;;;18.54;69.48;100606.19;2113064;27;46381;-66
2022/10/16 00:33:10;;;;;;;;;1.67;1.67;;;;;18.55;69.57;100601.72;2117509;27;46326;-65
2022/10/16 00:34:10;;;;;;;;;1.00;1.00;;;;;18.54;69.45;100587.38;2115131;27;47317;-65
2022/10/16 00:35:11;;;;;;;;;1.00;0.00;;;;;18.56;69.30;100587.34;2120667;27;46395;-65
2022/10/16 00:36:15;;;;;;;;;0.33;0.33;;;;;18.57;69.40;100591.75;2112831;27;46178;-65
2022/10/16 00:37:15;;;;;;;;;1.00;1.00;;;;;18.59;69.35;100595.22;2116418;27;46337;-64
2022/10/16 00:38:16;;;;;;;;;0.67;0.67;;;;;18.59;69.52;100600.59;2114792;27;46327;-65
2022/10/16 00:39:17;;;;;;;;;1.75;1.75;;;;;18.60;69.32;100604.13;2116280;27;46446;-64
2022/10/16 00:40:17;;;;;;;;;2.00;2.00;;;;;18.58;69.62;100596.16;2112748;27;46306;-66
2022/10/16 00:41:17;;;;;;;;;3.67;1.00;;;;;18.59;68.96;100595.22;2113040;27;47792;-65
2022/10/16 00:42:18;;;;;;;;;0.67;0.67;;;;;18.59;69.64;100605.09;2116062;27;46582;-65
2022/10/16 00:43:34;;;;;;;;;2.00;2.00;;;;;18.59;69.46;100608.66;2115895;27;46950;-65
2022/10/16 00:44:49;;;;;;;;;1.00;1.00;;;;;18.60;69.29;100613.06;2121117;27;46982;-64
2022/10/16 00:45:50;;;;;;;;;1.25;1.25;;;;;18.60;69.45;100614.91;2121703;27;46550;-65
2022/10/16 00:46:50;;;;;;;;;1.00;1.00;;;;;18.60;69.29;100615.75;2121434;27;47115;-64
2022/10/16 00:47:55;;;;;;;;;0.33;0.33;;;;;18.61;69.53;100619.31;2120112;27;46009;-66
2022/10/16 00:49:01;;;;;;;;;1.25;1.25;;;;;18.61;69.10;100609.44;2119884;27;47143;-64
2022/10/16 00:50:06;;;;;;;;;2.00;2.00;;;;;18.62;69.45;100612.97;2112911;27;46261;-65
2022/10/16 00:51:07;;;;;;;;;2.00;2.00;;;;;18.63;69.67;100609.34;2118711;27;46652;-64
2022/10/16 00:52:08;;;;;;;;;2.00;1.25;;;;;18.63;69.50;100607.50;2111653;27;46477;-64
2022/10/16 00:53:08;;;;;;;;;2.67;1.00;;;;;18.64;69.12;100624.53;2111930;27;46243;-64
2022/10/16 00:54:23;;;;;;;;;1.33;1.33;;;;;18.62;69.41;100626.41;2120141;27;46174;-64
2022/10/16 00:55:24;;;;;;;;;4.75;4.00;;;;;18.62;69.57;100621.91;2121300;27;46079;-65
2022/10/16 00:56:24;;;;;;;;;2.00;2.00;;;;;18.61;69.60;100628.25;2121257;27;47276;-65
2022/10/16 00:57:25;;;;;;;;;1.00;1.00;;;;;18.61;69.53;100622.88;2119727;27;46548;-64
2022/10/16 00:58:25;;;;;;;;;2.00;2.00;;;;;18.60;69.45;100613.06;2112601;27;46738;-65
2022/10/16 00:59:30;;;;;;;;;2.00;2.00;;;;;18.60;69.54;100614.91;2118141;27;45553;-65
2022/10/16 01:00:30;;;;;;;;;2.25;2.25;;;;;18.59;69.72;100610.47;2119100;27;46953;-64
2022/10/16 01:01:30;;;;;;;;;1.00;1.00;;;;;18.56;69.64;100614.22;2119462;27;46354;-65
2022/10/16 01:02:31;;;;;;;;;3.00;3.00;;;;;18.55;69.56;100612.47;2121166;27;46181;-65
2022/10/16 01:03:34;;;;;;;;;3.00;3.00;;;;;18.54;69.81;100602.66;2115458;27;47003;-65
2022/10/16 01:04:39;;;;;;;;;1.50;1.50;;;;;18.54;69.64;100614.25;2116618;27;46598;-64
2022/10/16 01:05:50;;;;;;;;;2.00;2.00;;;;;18.53;69.75;100604.47;2112921;27;46069;-65
2022/10/16 01:07:09;;;;;;;;;3.25;3.25;;;;;18.53;69.94;100607.16;2113082;27;45830;-65
2022/10/16 01:08:22;;;;;;;;;2.00;2.00;;;;;18.53;69.99;100600.91;2117612;27;46366;-64
2022/10/16 01:09:28;;;;;;;;;2.00;2.00;;;;;18.52;69.85;100601.88;2122188;27;45816;-65
2022/10/16 01:10:42;;;;;;;;;2.50;2.50;;;;;18.53;69.71;100591.03;2122738;27;46740;-64
2022/10/16 01:12:04;;;;;;;;;2.50;2.50;;;;;18.53;69.75;100593.72;2115536;27;46465;-65
2022/10/16 01:13:14;;;;;;;;;3.00;2.75;;;;;18.54;70.05;100592.75;2119138;27;47861;-64
2022/10/16 01:14:42;;;;;;;;;3.00;3.00;;;;;18.54;70.05;100599.97;2114863;27;46014;-64
2022/10/16 01:16:02;;;;;;;;;4.00;3.00;;;;;18.55;70.20;100599.03;2120823;27;46843;-65
2022/10/16 01:17:15;;;;;;;;;1.50;1.50;;;;;18.56;69.73;100613.34;2104920;28;46373;-64
2022/10/16 01:18:28;;;;;;;;;2.00;2.00;;;;;18.54;70.00;100619.63;2099561;28;47155;-65
2022/10/16 01:19:54;;;;;;;;;2.00;2.00;;;;;18.54;69.88;100619.63;2099492;28;46479;-65
2022/10/16 01:21:01;;;;;;;;;2.50;2.50;;;;;18.54;70.08;100625.00;2099598;28;46632;-65
2022/10/16 01:22:04;;;;;;;;;1.50;1.50;;;;;18.54;69.78;100626.84;2096603;28;46753;-65
2022/10/16 01:23:26;;;;;;;;;2.75;2.75;;;;;18.56;70.08;100634.84;2101303;28;45684;-65
2022/10/16 01:24:40;;;;;;;;;1.50;1.50;;;;;18.56;69.96;100634.84;2101921;28;45754;-65
2022/10/16 01:26:05;;;;;;;;;3.00;2.50;;;;;18.56;70.05;100634.84;2099528;28;46297;-65
2022/10/16 01:27:24;;;;;;;;;2.25;2.25;;;;;18.56;69.94;100630.34;2096793;28;46914;-65
2022/10/16 01:28:32;;;;;;;;;3.00;3.00;;;;;18.56;70.12;100633.03;2099432;28;46619;-65
2022/10/16 01:29:56;;;;;;;;;2.00;2.00;;;;;18.56;69.97;100629.47;2096230;28;46898;-66
2022/10/16 01:31:01;;;;;;;;;2.00;2.00;;;;;18.57;69.75;100625.81;2101330;28;46379;-65
2022/10/16 01:32:10;;;;;;;;;3.25;3.25;;;;;18.57;69.67;100628.50;2098806;28;46320;-65
2022/10/16 01:33:24;;;;;;;;;3.25;1.75;;;;;18.55;70.05;100625.91;2102535;28;46765;-66
2022/10/16 01:34:33;;;;;;;;;2.25;2.25;;;;;18.56;69.94;100629.47;2104709;28;46680;-65
2022/10/16 01:35:38;;;;;;;;;1.75;1.75;;;;;18.56;69.96;100626.78;2101515;27;46589;-65
2022/10/16 01:36:45;;;;;;;;;1.00;1.00;;;;;18.56;69.82;100640.22;2102710;28;46529;-64
2022/10/16 01:37:53;;;;;;;;;2.75;1.00;;;;;18.58;70.19;100641.00;2096739;28;46853;-66
2022/10/16 01:39:00;;;;;;;;;1.50;1.50;;;;;18.58;69.84;100639.16;2096563;28;46599;-64
2022/10/16 01:40:05;;;;;;;;;1.75;1.75;;;;;18.59;70.05;100637.34;2103908;28;47032;-64
2022/10/16 01:41:15;;;;;;;;;1.00;1.00;;;;;18.59;69.78;100640.91;2103859;28;46771;-63
2022/10/16 01:42:21;;;;;;;;;2.00;2.00;;;;;18.60;69.98;100648.00;2101525;28;46948;-64
2022/10/16 01:43:27;;;;;;;;;2.25;2.25;;;;;18.61;69.65;100647.06;2103545;27;47044;-66
2022/10/16 01:44:33;;;;;;;;;2.00;2.00;;;;;18.62;69.33;100643.41;2104455;28;47037;-66
2022/10/16 01:45:35;;;;;;;;;2.50;2.50;;;;;18.63;69.51;100642.47;2100925;28;46368;-65
2022/10/16 01:46:39;;;;;;;;;1.00;1.00;;;;;18.64;69.96;100635.28;2096696;28;46601;-64
2022/10/16 01:47:40;;;;;;;;;2.00;0.25;;;;;18.62;69.71;100638.03;2104361;28;45535;-64
2022/10/16 01:48:41;;;;;;;;;0.25;0.25;;;;;18.63;69.19;100626.31;2104543;28;46890;-65
2022/10/16 01:49:44;;;;;;;;;0.33;0.33;;;;;18.65;69.44;100632.50;2104636;28;46367;-65
2022/10/16 01:50:54;;;;;;;;;2.75;2.75;;;;;18.65;69.58;100626.28;2101877;28;45690;-65
2022/10/16 01:51:58;;;;;;;;;1.50;1.50;;;;;18.66;69.39;100622.63;2098847;28;45867;-65
2022/10/16 01:53:02;;;;;;;;;1.75;1.75;;;;;18.67;69.30;100617.16;2096678;28;45871;-65
2022/10/16 01:54:06;;;;;;;;;1.00;1.00;;;;;18.67;69.36;100619.84;2095742;28;46825;-66
2022/10/16 01:55:10;;;;;;;;;1.00;1.00;;;;;18.68;69.00;100618.94;2108905;27;46378;-65
2022/10/16 01:56:13;;;;;;;;;2.00;2.00;;;;;18.68;69.05;100631.50;2113766;27;46494;-65
2022/10/16 01:57:15;;;;;;;;;1.00;1.00;;;;;18.66;69.19;100631.56;2120548;27;46864;-65
2022/10/16 01:58:16;;;;;;;;;0.00;0.00;;;;;18.65;69.01;100631.66;2121041;27;45636;-65
2022/10/16 01:59:21;;;;;;;;;1.00;1.00;;;;;18.64;69.14;100637.97;2114327;27;46259;-65
2022/10/16 02:00:23;;;;;;;;;1.50;1.25;;;;;18.63;69.06;100631.72;2119453;27;45323;-66
2022/10/16 02:01:26;;;;;;;;;0.75;0.75;;;;;18.63;68.90;100631.72;2116573;27;45733;-66
2022/10/16 02:02:30;;;;;;;;;1.25;1.25;;;;;18.64;69.36;100624.53;2111948;27;46269;-66
2022/10/16 02:03:33;;;;;;;;;2.00;2.00;;;;;18.63;69.40;100620.94;2113114;27;46941;-66
2022/10/16 02:04:42;;;;;;;;;1.00;1.00;;;;;18.61;68.99;100614.81;2121923;27;45904;-65
2022/10/16 02:05:49;;;;;;;;;1.75;1.75;;;;;18.60;69.09;100618.44;2121658;27;46608;-67
2022/10/16 02:06:50;;;;;;;;;1.25;1.25;;;;;18.59;69.41;100626.59;2114148;27;46426;-65
2022/10/16 02:07:50;;;;;;;;;2.00;2.00;;;;;18.59;69.27;100624.78;2120167;27;46237;-65
2022/10/16 02:08:51;;;;;;;;;1.33;1.33;;;;;18.58;68.99;100630.25;2112520;27;46659;-63
2022/10/16 02:09:51;;;;;;;;;1.00;1.00;;;;;18.56;69.40;100638.41;2111355;27;46729;-64
2022/10/16 02:10:52;;;;;;;;;2.00;2.00;;;;;18.56;68.91;100632.16;2118336;27;46623;-64
2022/10/16 02:11:56;;;;;;;;;1.00;1.00;;;;;18.54;69.50;100640.28;2122553;27;46572;-64
2022/10/16 02:13:12;;;;;;;;;44.40;36.20;;;;;18.54;69.27;100634.91;2117425;27;46604;-65
2022/10/16 02:14:12;;;;;;;;;7.25;7.25;;;;;18.53;69.06;100633.16;2122582;27;46765;-65
2022/10/16 02:15:13;;;;;;;;;7.00;7.00;;;;;18.53;68.97;100631.34;2118755;27;46568;-65
2022/10/16 02:16:14;;;;;;;;;7.67;7.67;;;;;18.54;69.14;100619.63;2114373;27;45886;-66
2022/10/16 02:17:19;;;;;;;;;8.25;7.25;;;;;18.54;69.33;100614.25;2117850;27;46568;-65
2022/10/16 02:18:20;;;;;;;;;2.33;1.00;;;;;18.56;69.36;100616.03;2122698;27;46439;-64
2022/10/16 02:19:22;;;;;;;;;3.00;3.00;;;;;18.56;69.31;100634.84;2114108;27;46352;-66
2022/10/16 02:20:27;;;;;;;;;0.00;0.00;;;;;18.54;68.89;100641.13;2122722;27;46821;-64
2022/10/16 02:21:56;;;;;;;;;3.00;3.00;;;;;18.54;69.18;100643.81;2118811;27;46696;-64
2022/10/16 02:22:58;;;;;;;;;1.50;1.50;;;;;18.54;69.02;100649.19;2087587;28;46774;-65
2022/10/16 02:24:16;;;;;;;;;2.00;0.75;;;;;18.54;69.11;100645.66;2087532;28;46848;-66
2022/10/16 02:25:26;;;;;;;;;1.25;1.25;;;;;18.54;69.43;100642.97;2092096;28;46035;-65
2022/10/16 02:26:35;;;;;;;;;4.25;2.50;;;;;18.53;69.05;100644.78;2090170;28;46447;-65
2022/10/16 02:27:47;;;;;;;;;0.75;0.75;;;;;18.54;69.17;100637.59;2087959;28;45758;-64
2022/10/16 02:28:54;;;;;;;;;0.75;0.75;;;;;18.54;69.18;100635.75;2090531;28;46230;-65
2022/10/16 02:30:07;;;;;;;;;0.25;0.25;;;;;18.55;69.18;100639.34;2090868;28;46748;-65
2022/10/16 02:31:13;;;;;;;;;0.00;0.00;;;;;18.56;69.25;100637.53;2096273;28;46711;-66
2022/10/16 02:32:19;;;;;;;;;1.00;1.00;;;;;18.56;69.18;100633.03;2096198;28;46424;-66
2022/10/16 02:33:23;;;;;;;;;1.00;1.00;;;;;18.58;68.93;100635.63;2096058;28;45750;-63
2022/10/16 02:34:26;;;;;;;;;1.00;1.00;;;;;18.57;68.99;100629.38;2095720;28;46640;-65
2022/10/16 02:35:27;;;;;;;;;0.25;0.25;;;;;18.57;69.12;100631.19;2092064;28;46002;-65
2022/10/16 02:36:29;;;;;;;;;0.00;0.00;;;;;18.56;68.85;100627.66;2096186;28;47009;-66
2022/10/16 02:37:30;;;;;;;;;1.25;1.25;;;;;18.57;68.87;100633.88;2095522;28;46449;-65
2022/10/16 02:38:31;;;;;;;;;1.00;1.00;;;;;18.57;68.58;100639.25;2095818;28;46756;-63
2022/10/16 02:39:31;;;;;;;;;0.00;0.00;;;;;18.55;68.38;100636.66;2093738;28;46623;-63
2022/10/16 02:40:32;;;;;;;;;1.00;1.00;;;;;18.53;68.79;100635.84;2096011;28;46442;-65
2022/10/16 02:41:32;;;;;;;;;0.00;0.00;;;;;18.52;68.43;100635.00;2095426;28;46187;-65
2022/10/16 02:42:35;;;;;;;;;1.00;1.00;;;;;18.52;68.59;100634.13;2095138;28;46332;-65
2022/10/16 02:43:35;;;;;;;;;0.00;0.00;;;;;18.51;68.38;100632.38;2093421;28;46813;-64
2022/10/16 02:44:36;;;;;;;;;1.67;1.67;;;;;18.51;68.76;100637.75;2095995;28;47118;-65
2022/10/16 02:45:36;;;;;;;;;1.00;1.00;;;;;18.50;68.54;100636.91;2095704;28;46721;-65
2022/10/16 02:46:36;;;;;;;;;0.00;0.00;;;;;18.53;68.69;100641.22;2095849;28;46399;-65
2022/10/16 02:47:37;;;;;;;;;0.00;0.00;;;;;18.53;68.63;100638.53;2095444;28;46072;-64
2022/10/16 02:48:39;;;;;;;;;1.00;0.33;;;;;18.51;68.25;100637.75;2096112;28;46649;-64
2022/10/16 02:49:39;;;;;;;;;1.00;1.00;;;;;18.50;68.38;100639.59;2095617;28;46395;-64
2022/10/16 02:50:39;;;;;;;;;0.00;0.00;;;;;18.49;68.44;100631.63;2095675;28;46498;-65
2022/10/16 02:51:39;;;;;;;;;0.67;0.67;;;;;18.48;68.51;100643.31;2087879;28;46690;-64
2022/10/16 02:52:40;;;;;;;;;0.00;0.00;;;;;18.49;68.13;100645.91;2087562;28;45848;-65
2022/10/16 02:53:40;;;;;;;;;0.00;0.00;;;;;18.49;68.03;100642.38;2095615;28;46250;-65
2022/10/16 02:54:41;;;;;;;;;0.00;0.00;;;;;18.49;68.11;100650.44;2095896;28;46799;-65
2022/10/16 02:55:41;;;;;;;;;1.33;1.33;;;;;18.49;67.98;100656.66;2089456;28;46378;-65
2022/10/16 02:56:42;;;;;;;;;0.00;0.00;;;;;18.50;67.88;100658.41;2095950;28;46775;-64
2022/10/16 02:57:43;;;;;;;;;0.00;0.00;;;;;18.50;67.86;100655.72;2095677;28;46581;-65
2022/10/16 02:58:43;;;;;;;;;0.67;0.67;;;;;18.49;67.93;100656.66;2088276;28;46377;-64
2022/10/16 02:59:44;;;;;;;;;0.00;0.00;;;;;18.49;67.99;100651.28;2092637;28;46739;-64
2022/10/16 03:00:44;;;;;;;;;0.50;0.25;;;;;18.48;67.90;100660.31;2100203;27;46307;-64
2022/10/16 03:01:45;;;;;;;;;1.00;1.00;;;;;18.49;68.17;100663.88;2108848;27;46121;-65
2022/10/16 03:02:46;;;;;;;;;0.67;0.67;;;;;18.48;67.42;100667.50;2105243;28;45947;-65
2022/10/16 03:03:46;;;;;;;;;0.75;0.75;;;;;18.48;67.98;100672.88;2113120;27;47309;-65
2022/10/16 03:04:47;;;;;;;;;0.00;0.00;;;;;18.48;67.85;100659.44;2103698;28;46619;-65
2022/10/16 03:05:47;;;;;;;;;1.00;1.00;;;;;18.47;67.60;100666.63;2104267;28;46260;-65
2022/10/16 03:06:47;;;;;;;;;0.00;0.00;;;;;18.46;67.31;100664.03;2113708;27;46914;-66
2022/10/16 03:07:48;;;;;;;;;0.33;0.33;;;;;18.46;67.69;100664.91;2111967;27;46668;-65
2022/10/16 03:08:48;;;;;;;;;0.33;0.00;;;;;18.45;67.30;100665.84;2114024;27;45521;-66
2022/10/16 03:09:48;;;;;;;;;0.00;0.00;;;;;18.46;67.66;100674.78;2108859;27;46555;-64
2022/10/16 03:10:50;;;;;;;;;0.00;0.00;;;;;18.45;67.43;100660.50;2105650;28;45862;-65
2022/10/16 03:11:50;;;;;;;;;0.00;0.00;;;;;18.45;67.93;100665.00;2113230;27;46557;-65
2022/10/16 03:12:50;;;;;;;;;0.00;0.00;;;;;18.47;67.64;100668.47;2110366;27;46077;-65
2022/10/16 03:13:51;;;;;;;;;0.00;0.00;;;;;18.46;67.75;100672.97;2105117;28;46684;-64
2022/10/16 03:14:51;;;;;;;;;1.00;1.00;;;;;18.46;67.68;100674.78;2106006;27;46195;-65
2022/10/16 03:15:51;;;;;;;;;0.00;0.00;;;;;18.46;67.82;100672.09;2111794;27;46421;-64
2022/10/16 03:16:52;;;;;;;;;1.67;1.67;;;;;18.45;67.69;100673.91;2112712;27;46231;-65
2022/10/16 03:17:52;;;;;;;;;0.00;0.00;;;;;18.45;67.44;100675.75;2110429;27;46054;-64
2022/10/16 03:18:52;;;;;;;;;0.00;0.00;;;;;18.44;67.53;100674.00;2113480;27;46721;-64
2022/10/16 03:19:53;;;;;;;;;0.00;0.00;;;;;18.43;67.41;100672.28;2109975;27;45293;-64
2022/10/16 03:20:53;;;;;;;;;0.00;0.00;;;;;18.43;67.69;100670.47;2110175;27;46861;-65
2022/10/16 03:21:53;;;;;;;;;0.00;0.00;;;;;18.43;67.41;100664.22;2112406;27;46349;-65
2022/10/16 03:22:53;;;;;;;;;0.00;0.00;;;;;18.43;67.49;100658.84;2108703;27;46932;-65
2022/10/16 03:23:54;;;;;;;;;0.00;0.00;;;;;18.44;67.34;100660.56;2112777;27;46650;-64
2022/10/16 03:24:54;;;;;;;;;1.00;0.00;;;;;18.43;67.25;100658.84;2108302;27;47008;-64
2022/10/16 03:25:54;;;;;;;;;0.33;0.00;;;;;18.43;67.42;100662.41;2109081;27;46470;-64
2022/10/16 03:26:55;;;;;;;;;0.00;0.00;;;;;18.44;67.31;100669.50;2111113;27;46410;-64
2022/10/16 03:27:55;;;;;;;;;0.00;0.00;;;;;18.45;67.41;100667.69;2111705;27;45615;-65
2022/10/16 03:28:55;;;;;;;;;0.00;0.00;;;;;18.45;67.30;100675.75;2111988;27;46814;-68
2022/10/16 03:29:56;;;;;;;;;0.00;0.00;;;;;18.44;67.35;100677.56;2108040;27;46921;-64
2022/10/16 03:30:56;;;;;;;;;0.00;0.00;;;;;18.45;67.48;100673.06;2107146;27;47208;-65
2022/10/16 03:31:56;;;;;;;;;0.67;0.00;;;;;18.42;67.33;100668.72;2105904;27;46447;-64
2022/10/16 03:32:57;;;;;;;;;0.00;0.00;;;;;18.43;67.12;100664.22;2105091;27;46609;-65
2022/10/16 03:33:57;;;;;;;;;2.00;1.67;;;;;18.41;67.25;100656.22;2108693;27;46343;-64
2022/10/16 03:34:57;;;;;;;;;0.67;0.67;;;;;18.40;67.13;100653.63;2111346;27;46178;-65
2022/10/16 03:35:58;;;;;;;;;0.33;0.33;;;;;18.38;67.00;100636.72;2111135;27;46504;-65
2022/10/16 03:36:58;;;;;;;;;0.00;0.00;;;;;18.36;67.25;100639.50;2111444;27;46427;-67
2022/10/16 03:37:58;;;;;;;;;0.00;0.00;;;;;18.33;66.99;100628.91;2122075;27;46203;-64
2022/10/16 03:38:59;;;;;;;;;1.00;1.00;;;;;18.31;67.22;100638.03;2120258;27;45634;-65
2022/10/16 03:39:59;;;;;;;;;0.00;0.00;;;;;18.30;67.22;100628.22;2118443;27;46577;-65
2022/10/16 03:40:59;;;;;;;;;0.00;0.00;;;;;18.29;67.32;100640.75;2119885;27;46240;-65
2022/10/16 03:41:59;;;;;;;;;0.00;0.00;;;;;18.28;67.55;100630.97;2117381;27;46440;-65
2022/10/16 03:43:00;;;;;;;;;0.00;0.00;;;;;18.28;67.16;100636.34;2114061;27;46333;-66
2022/10/16 03:44:00;;;;;;;;;0.67;0.67;;;;;18.27;67.34;100634.63;2108381;27;46333;-65
2022/10/16 03:45:01;;;;;;;;;0.00;0.00;;;;;18.27;67.55;100631.94;2107172;27;45631;-65
2022/10/16 03:46:01;;;;;;;;;0.00;0.00;;;;;18.27;67.41;100641.81;2119264;27;45284;-66
2022/10/16 03:47:01;;;;;;;;;0.00;0.00;;;;;18.26;67.31;100635.56;2116078;27;46739;-64
2022/10/16 03:48:03;;;;;;;;;0.00;0.00;;;;;18.27;67.41;100636.44;2113320;27;46666;-65
2022/10/16 03:49:03;;;;;;;;;0.00;0.00;;;;;18.26;67.35;100638.25;2116419;27;45711;-64
2022/10/16 03:50:04;;;;;;;;;0.00;0.00;;;;;18.26;67.54;100646.31;2116954;27;46834;-65
2022/10/16 03:51:05;;;;;;;;;0.75;0.75;;;;;18.24;67.52;100649.09;2118860;27;46030;-65
2022/10/16 03:52:06;;;;;;;;;0.75;0.00;;;;;18.25;67.58;100660.69;2104801;27;47082;-65
2022/10/16 03:53:06;;;;;;;;;0.00;0.00;;;;;18.24;67.81;100658.97;2106319;27;46660;-65
2022/10/16 03:54:06;;;;;;;;;0.00;0.00;;;;;18.22;67.35;100653.69;2115575;27;47029;-65
2022/10/16 03:55:07;;;;;;;;;0.00;0.00;;;;;18.25;67.44;100663.38;2115900;27;47139;-65
2022/10/16 03:56:07;;;;;;;;;0.00;0.00;;;;;18.24;67.59;100659.81;2114146;27;46972;-64
2022/10/16 03:57:08;;;;;;;;;0.00;0.00;;;;;18.24;67.39;100658.97;2103618;28;46377;-65
2022/10/16 03:58:08;;;;;;;;;0.00;0.00;;;;;18.24;67.41;100656.28;2099900;28;45735;-64
2022/10/16 03:59:08;;;;;;;;;0.00;0.00;;;;;18.25;67.32;100658.00;2114738;27;46236;-65
2022/10/16 04:00:10;;;;;;;;;0.00;0.00;;;;;18.25;67.12;100668.75;2094897;28;46281;-64
2022/10/16 04:01:10;;;;;;;;;0.00;0.00;;;;;18.25;67.11;100671.44;2094911;28;46982;-65
2022/10/16 04:02:10;;;;;;;;;0.00;0.00;;;;;18.26;67.19;100672.31;2113132;27;46464;-64
2022/10/16 04:03:11;;;;;;;;;0.67;0.67;;;;;18.26;67.82;100675.84;2117475;27;46590;-63
2022/10/16 04:04:11;;;;;;;;;1.00;0.00;;;;;18.26;67.52;100678.53;2116976;27;46815;-64
2022/10/16 04:05:11;;;;;;;;;0.00;0.00;;;;;18.28;67.47;100670.41;2122009;27;46858;-64
2022/10/16 04:06:12;;;;;;;;;0.00;0.00;;;;;18.29;67.41;100672.13;2117031;27;45878;-64
2022/10/16 04:07:12;;;;;;;;;0.00;0.00;;;;;18.30;67.30;100660.47;2115253;27;46901;-65
2022/10/16 04:08:12;;;;;;;;;0.00;0.00;;;;;18.29;67.21;100654.19;2120319;27;46489;-64
2022/10/16 04:09:13;;;;;;;;;0.00;0.00;;;;;18.30;67.22;100650.59;2119405;27;46306;-65
2022/10/16 04:10:13;;;;;;;;;0.00;0.00;;;;;18.31;67.30;100646.94;2121671;27;46784;-64
2022/10/16 04:11:13;;;;;;;;;0.00;0.00;;;;;18.32;67.43;100647.81;2109761;27;46815;-64
2022/10/16 04:12:14;;;;;;;;;0.00;0.00;;;;;18.32;67.01;100647.81;2112779;27;46577;-64
2022/10/16 04:13:14;;;;;;;;;1.00;1.00;;;;;18.32;67.14;100647.81;2113172;27;46523;-64
2022/10/16 04:14:14;;;;;;;;;0.33;0.33;;;;;18.29;67.11;100654.19;2112651;27;46388;-66
2022/10/16 04:15:15;;;;;;;;;0.00;0.00;;;;;18.29;67.22;100664.94;2113443;27;47190;-65
2022/10/16 04:16:15;;;;;;;;;1.00;1.00;;;;;18.30;67.45;100666.72;2120328;27;46388;-64
2022/10/16 04:17:15;;;;;;;;;1.00;1.00;;;;;18.30;67.24;100665.84;2121305;27;46781;-65
2022/10/16 04:18:16;;;;;;;;;1.00;1.00;;;;;18.31;66.95;100659.50;2118026;27;46517;-67
2022/10/16 04:19:16;;;;;;;;;0.00;0.00;;;;;18.30;67.11;100669.41;2113066;27;46419;-64
2022/10/16 04:20:16;;;;;;;;;0.00;0.00;;;;;18.29;66.95;100667.63;2114267;27;46415;-64
2022/10/16 04:21:17;;;;;;;;;0.00;0.00;;;;;18.28;67.21;100671.25;2115394;27;46274;-66
2022/10/16 04:22:17;;;;;;;;;0.00;0.00;;;;;18.28;67.17;100676.63;2121971;27;46060;-65
2022/10/16 04:23:17;;;;;;;;;0.00;0.00;;;;;18.27;67.09;100674.91;2116334;27;46709;-65
2022/10/16 04:24:17;;;;;;;;;0.00;0.00;;;;;18.25;67.09;100676.81;2112950;27;46872;-65
2022/10/16 04:25:18;;;;;;;;;0.00;0.00;;;;;18.26;67.07;100672.31;2120661;27;46528;-64
2022/10/16 04:26:18;;;;;;;;;0.00;0.00;;;;;18.25;67.05;100668.75;2118066;27;45944;-66
2022/10/16 04:27:18;;;;;;;;;0.00;0.00;;;;;18.25;67.09;100671.44;2113189;27;46508;-64
2022/10/16 04:28:19;;;;;;;;;0.00;0.00;;;;;18.28;67.02;100670.41;2120180;27;46254;-65
2022/10/16 04:29:19;;;;;;;;;0.00;0.00;;;;;18.27;67.04;100674.91;2112787;27;46489;-64
2022/10/16 04:30:21;;;;;;;;;1.00;1.00;;;;;18.28;67.10;100679.31;2112593;27;46765;-64
2022/10/16 04:31:21;;;;;;;;;0.00;0.00;;;;;18.27;66.94;100680.28;2112637;27;45833;-65
2022/10/16 04:32:21;;;;;;;;;0.00;0.00;;;;;18.29;67.09;100683.75;2111631;27;46270;-65
2022/10/16 04:33:22;;;;;;;;;0.00;0.00;;;;;18.29;67.05;100680.19;2098517;28;46632;-65
2022/10/16 04:34:22;;;;;;;;;0.00;0.00;;;;;18.30;67.14;100684.66;2103229;28;46714;-64
2022/10/16 04:35:22;;;;;;;;;0.00;0.00;;;;;18.31;67.17;100689.94;2115162;27;46713;-65
2022/10/16 04:36:23;;;;;;;;;0.00;0.00;;;;;18.32;67.00;100693.47;2114789;27;45556;-64
2022/10/16 04:37:25;;;;;;;;;0.00;0.00;;;;;18.33;67.18;100693.41;2117589;27;46769;-64
2022/10/16 04:38:25;;;;;;;;;0.00;0.00;;;;;18.33;67.09;100688.03;2121454;27;45727;-64
2022/10/16 04:39:26;;;;;;;;;0.00;0.00;;;;;18.34;66.92;100695.13;2120592;27;45499;-65
2022/10/16 04:40:26;;;;;;;;;0.33;0.00;;;;;18.34;66.69;100694.25;2120873;27;46560;-64
2022/10/16 04:41:26;;;;;;;;;0.00;0.00;;;;;18.34;66.75;100702.31;2121874;27;45793;-65
2022/10/16 04:42:26;;;;;;;;;1.00;0.00;;;;;18.35;67.05;100699.56;2119329;27;46210;-65
2022/10/16 04:43:27;;;;;;;;;0.00;0.00;;;;;18.35;66.83;100704.91;2119548;27;46511;-65
2022/10/16 04:44:27;;;;;;;;;0.00;0.00;;;;;18.36;66.77;100717.41;2123800;27;46665;-65
2022/10/16 04:45:27;;;;;;;;;1.00;0.00;;;;;18.36;66.84;100713.84;2124119;27;46622;-65
2022/10/16 04:46:28;;;;;;;;;1.00;0.00;;;;;18.36;66.99;100713.84;2114395;27;46394;-65
2022/10/16 04:47:28;;;;;;;;;0.00;0.00;;;;;18.38;66.94;100722.69;2113976;27;46603;-65
2022/10/16 04:48:28;;;;;;;;;0.00;0.00;;;;;18.38;66.83;100720.00;2124392;27;46512;-64
2022/10/16 04:49:29;;;;;;;;;0.00;0.00;;;;;18.39;66.94;100719.06;2122470;27;46741;-65
2022/10/16 04:50:29;;;;;;;;;0.00;0.00;;;;;18.39;66.89;100716.38;2121244;27;46550;-65
2022/10/16 04:51:29;;;;;;;;;0.00;0.00;;;;;18.39;66.62;100719.91;2124409;27;46246;-64
2022/10/16 04:52:31;;;;;;;;;0.67;0.67;;;;;18.41;66.78;100719.84;2120779;27;46352;-65